MST,Max TemperatureF,Mean TemperatureF,Min TemperatureF,Max Dew PointF,MeanDew PointF,Min DewpointF,Max Humidity, Mean Humidity, Min Humidity, Max Sea Level PressureIn, Mean Sea Level PressureIn, Min Sea Level PressureIn, Max VisibilityMiles, Mean VisibilityMiles, Min VisibilityMiles, Max Wind SpeedMPH, Mean Wind SpeedMPH, Max Gust SpeedMPH,PrecipitationIn, CloudCover, Events, WindDirDegrees
2013-10-1,97,81,65,56,48,43,58,38,17,29.88,29.82,29.76,10,10,10,14,6,17,0.00,0,,159
2013-10-2,96,83,70,59,50,43,49,34,19,29.86,29.80,29.73,10,10,10,17,7,23,0.00,0,,172
2013-10-3,95,83,71,61,49,36,66,40,13,29.78,29.73,29.64,10,10,10,14,6,16,0.00,1,,213
2013-10-4,88,80,71,45,17,8,35,21,6,30.02,29.92,29.76,10,10,8,26,15,34,0.00,0,,4
2013-10-5,87,78,68,21,18,14,15,11,6,30.15,30.08,30.03,10,10,10,22,12,29,0.00,0,,355
2013-10-6,94,80,65,25,19,12,19,12,5,30.09,30.00,29.93,10,10,10,16,6,20,0.00,2,,2
2013-10-7,95,80,65,40,25,17,23,15,6,29.93,29.87,29.81,10,10,9,12,3,14,0.00,4,,356
2013-10-8,93,77,61,51,35,23,43,26,9,29.83,29.74,29.65,10,10,7,14,5,17,0.00,0,,192
2013-10-9,81,73,64,43,40,38,44,34,23,29.75,29.70,29.65,10,10,9,25,11,32,0.00,4,,304
2013-10-10,76,68,59,46,38,33,56,39,21,29.96,29.89,29.77,10,10,10,18,7,23,T,1,,296
2013-10-11,83,70,57,40,36,31,51,33,15,30.01,29.93,29.87,10,10,10,10,4,16,0.00,0,,348
2013-10-12,88,74,59,43,37,32,51,33,14,29.92,29.87,29.81,10,10,10,9,4,13,0.00,0,,148
2013-10-13,89,76,62,56,44,35,52,35,17,29.93,29.87,29.81,10,10,10,13,6,,0.00,0,,211
2013-10-14,88,75,62,42,32,24,48,29,10,30.00,29.94,29.90,10,10,10,17,8,23,0.00,0,,358
2013-10-15,87,74,60,32,27,18,35,21,7,29.96,29.91,29.86,10,10,7,17,7,23,0.00,0,,2
2013-10-16,85,75,64,29,24,20,24,17,9,30.08,30.00,29.96,10,10,10,20,8,26,0.00,0,,355
2013-10-17,88,71,54,36,26,15,50,29,7,30.02,29.94,29.86,10,10,10,10,2,15,0.00,0,,12
2013-10-18,90,73,56,36,24,17,39,23,7,29.99,29.93,29.88,10,10,10,17,4,22,0.00,0,,1
2013-10-19,93,77,60,34,25,17,32,20,7,30.01,29.93,29.88,10,10,10,13,4,16,0.00,0,,7
2013-10-20,93,75,57,37,29,19,40,24,7,29.92,29.85,29.79,10,10,10,8,2,11,0.00,0,,196
2013-10-21,91,76,61,41,35,26,40,26,11,29.94,29.89,29.84,10,10,10,9,2,11,0.00,0,,88
2013-10-22,94,77,60,44,31,19,48,28,7,29.96,29.89,29.83,10,10,10,15,6,19,0.00,0,,5
2013-10-23,92,75,58,38,30,20,39,23,7,29.85,29.81,29.77,10,10,10,15,4,17,0.00,3,,101
2013-10-24,89,75,60,55,41,34,44,31,17,29.92,29.86,29.81,10,10,10,10,2,11,0.00,0,,190
2013-10-25,91,76,60,59,45,35,66,41,15,30.03,29.97,29.93,10,10,10,8,2,,0.00,1,,221
2013-10-26,93,78,62,41,35,29,46,28,10,30.03,29.96,29.90,10,10,10,15,4,18,0.00,4,,33
2013-10-27,93,78,62,45,37,29,43,27,10,29.89,29.79,29.69,10,10,10,13,5,16,0.00,3,,186
2013-10-28,85,75,65,51,44,36,58,38,17,29.85,29.76,29.71,10,10,5,24,9,30,T,2,,289
2013-10-29,74,67,59,43,39,37,46,38,29,29.93,29.89,29.86,10,10,10,17,8,22,0.00,1,,321
2013-10-30,77,66,55,41,35,30,59,39,18,30.02,29.97,29.92,10,10,10,13,5,16,0.00,0,,325
2013-10-31,80,66,52,36,30,22,50,31,12,30.11,30.04,29.99,10,10,10,13,5,17,0.00,0,,2